createdAt,value
2018-09-17T00:01:32.189Z,101118.28
2018-09-17T00:06:35.760Z,101116.50
2018-09-17T00:11:39.359Z,101119.52
2018-09-17T00:16:42.904Z,101124.23
2018-09-17T00:21:46.468Z,101126.84
2018-09-17T00:26:50.110Z,101135.63
2018-09-17T00:31:56.205Z,101133.89
2018-09-17T00:36:59.905Z,101124.98
2018-09-17T00:42:03.752Z,101126.25
2018-09-17T00:47:07.347Z,101123.06
2018-09-17T00:52:10.969Z,101129.11
2018-09-17T00:57:14.599Z,101130.00
2018-09-17T01:02:18.114Z,101134.81
2018-09-17T01:07:21.629Z,101127.88
2018-09-17T01:12:25.154Z,101126.89
2018-09-17T01:17:28.698Z,101129.40
2018-09-17T01:22:32.230Z,101128.53
2018-09-17T01:27:35.805Z,101129.44
2018-09-17T01:32:39.341Z,101133.02
2018-09-17T01:37:42.841Z,101136.41
2018-09-17T01:42:46.495Z,101139.88
2018-09-17T01:47:50.107Z,101134.79
2018-09-17T01:52:53.708Z,101124.83
2018-09-17T01:57:57.393Z,101111.48
2018-09-17T02:03:01.001Z,101118.47
2018-09-17T02:08:04.810Z,101114.91
2018-09-17T02:13:08.581Z,101112.55
2018-09-17T02:18:12.187Z,101106.06
2018-09-17T02:23:15.720Z,101102.50
2018-09-17T02:28:19.252Z,101105.05
2018-09-17T02:33:22.813Z,101102.81
2018-09-17T02:38:26.457Z,101103.94
2018-09-17T02:43:30.000Z,101112.58
2018-09-17T02:48:33.577Z,101109.13
2018-09-17T02:53:37.191Z,101104.83
2018-09-17T02:58:40.713Z,101114.73
2018-09-17T03:03:44.328Z,101100.73
2018-09-17T03:08:48.011Z,101105.88
2018-09-17T03:14:02.131Z,101111.51
2018-09-17T03:19:05.747Z,101114.55
2018-09-17T03:24:09.358Z,101118.66
2018-09-17T03:29:13.007Z,101133.41
2018-09-17T03:34:16.521Z,101130.78
2018-09-17T03:39:20.084Z,101141.20
2018-09-17T03:44:23.927Z,101130.91
2018-09-17T03:49:27.498Z,101136.98
2018-09-17T03:54:31.097Z,101140.47
2018-09-17T03:59:34.635Z,101139.59
2018-09-17T04:04:38.505Z,101137.88
2018-09-17T04:09:44.217Z,101128.36
2018-09-17T04:14:47.963Z,101117.11
2018-09-17T04:19:59.435Z,101115.77
2018-09-17T04:25:03.036Z,101117.09
2018-09-17T04:30:07.002Z,101110.55
2018-09-17T04:35:10.581Z,101111.02
2018-09-17T04:40:14.226Z,101107.94
2018-09-17T04:45:17.773Z,101114.91
2018-09-17T04:50:21.386Z,101127.92
2018-09-17T04:55:24.911Z,101119.19
2018-09-17T05:00:35.695Z,101123.95
2018-09-17T05:05:39.289Z,101134.36
2018-09-17T05:10:42.816Z,101150.91
2018-09-17T05:15:46.529Z,101143.53
2018-09-17T05:20:50.058Z,101162.22
2018-09-17T05:25:53.614Z,101162.22
2018-09-17T05:30:57.241Z,101167.43
2018-09-17T05:36:00.834Z,101171.78
2018-09-17T05:41:04.842Z,101166.97
2018-09-17T05:46:08.461Z,101169.17
2018-09-17T05:51:12.730Z,101176.53
2018-09-17T05:56:16.557Z,101193.37
2018-09-17T06:01:20.681Z,101189.84
2018-09-17T06:06:24.451Z,101193.75
2018-09-17T06:11:28.272Z,101190.68
2018-09-17T06:16:32.110Z,101191.46
2018-09-17T06:21:35.889Z,101188.30
2018-09-17T06:26:39.563Z,101187.41
2018-09-17T06:31:46.970Z,101186.53
2018-09-17T06:36:50.646Z,101189.06
2018-09-17T06:41:54.488Z,101201.61
2018-09-17T06:46:58.190Z,101213.65
2018-09-17T06:52:01.789Z,101236.81
2018-09-17T06:57:05.366Z,101231.78
2018-09-17T07:02:09.089Z,101234.98
2018-09-17T07:07:12.802Z,101239.03
2018-09-17T07:12:16.433Z,101230.28
2018-09-17T07:17:20.020Z,101215.09
2018-09-17T07:22:23.706Z,101205.17
2018-09-17T07:27:27.301Z,101206.17
2018-09-17T07:32:30.977Z,101206.59
2018-09-17T07:37:34.626Z,101206.44
2018-09-17T07:42:38.320Z,101205.58
2018-09-17T07:47:43.564Z,101209.52
2018-09-17T07:52:47.298Z,101202.63
2018-09-17T07:57:55.807Z,101206.98
2018-09-17T08:03:00.184Z,101209.71
2018-09-17T08:08:03.848Z,101200.79
2018-09-17T08:13:07.541Z,101200.87
2018-09-17T08:18:11.137Z,101196.78
2018-09-17T08:23:15.029Z,101192.51
2018-09-17T08:28:18.709Z,101195.72
2018-09-17T08:33:22.384Z,101191.96
2018-09-17T08:38:26.270Z,101177.88
2018-09-17T08:43:30.099Z,101172.86
2018-09-17T08:48:33.812Z,101176.97
2018-09-17T08:53:37.693Z,101167.84
2018-09-17T08:58:46.582Z,101177.55
2018-09-17T09:03:57.743Z,101175.29
2018-09-17T09:09:01.920Z,101183.07
2018-09-17T09:14:10.557Z,101175.31
2018-09-17T09:19:14.250Z,101176.05
2018-09-17T09:24:18.546Z,101166.24
2018-09-17T09:29:22.693Z,101167.59
2018-09-17T09:34:26.439Z,101162.59
2018-09-17T09:39:33.537Z,101158.17
2018-09-17T09:44:43.163Z,101156.80
2018-09-17T09:49:50.318Z,101155.73
2018-09-17T09:55:03.201Z,101143.78
2018-09-17T10:00:13.714Z,101149.14
2018-09-17T10:05:17.623Z,101145.80
2018-09-17T10:10:26.783Z,101135.99
2018-09-17T10:15:35.537Z,101141.94
2018-09-17T10:20:39.093Z,101138.68
2018-09-17T10:25:42.697Z,101128.94
2018-09-17T10:30:46.512Z,101126.75
2018-09-17T10:35:50.051Z,101118.21
2018-09-17T10:40:53.607Z,101118.59
2018-09-17T10:45:57.172Z,101113.48
2018-09-17T10:51:00.767Z,101109.85
2018-09-17T10:56:04.372Z,101103.83
2018-09-17T11:01:07.973Z,101104.22
2018-09-17T11:06:11.796Z,101094.77
2018-09-17T11:11:17.438Z,101092.92
2018-09-17T11:16:21.040Z,101085.79
2018-09-17T11:21:24.652Z,101085.31
2018-09-17T11:26:28.427Z,101087.14
2018-09-17T11:31:32.481Z,101082.79
2018-09-17T11:36:42.407Z,101081.37
2018-09-17T11:41:51.861Z,101076.18
2018-09-17T11:46:55.409Z,101073.42
2018-09-17T11:52:02.733Z,101068.13
2018-09-17T11:57:06.399Z,101068.47
2018-09-17T12:02:15.530Z,101058.19
2018-09-17T12:07:24.333Z,101054.22
2018-09-17T12:12:27.989Z,101046.68
2018-09-17T12:17:31.784Z,101048.30
2018-09-17T12:22:35.519Z,101041.69
2018-09-17T12:27:41.318Z,101031.07
2018-09-17T12:32:52.409Z,101030.45
2018-09-17T12:37:56.050Z,101029.11
2018-09-17T12:42:59.660Z,101021.45
2018-09-17T12:48:03.340Z,101018.75
2018-09-17T12:53:06.924Z,101005.41
2018-09-17T12:58:10.453Z,101002.04
2018-09-17T13:03:14.114Z,100995.88
2018-09-17T13:08:17.963Z,100996.87
2018-09-17T13:13:21.625Z,100982.84
2018-09-17T13:18:26.317Z,100980.28
2018-09-17T13:23:29.974Z,100975.23
2018-09-17T13:28:33.515Z,100972.19
2018-09-17T13:33:37.034Z,100968.56
2018-09-17T13:38:40.576Z,100958.20
2018-09-17T13:43:44.097Z,100952.95
2018-09-17T13:48:47.803Z,100949.91
2018-09-17T13:53:51.443Z,100948.63
2018-09-17T13:58:54.965Z,100944.86
2018-09-17T14:03:58.557Z,100937.08
2018-09-17T14:09:02.215Z,100930.00
2018-09-17T14:14:05.964Z,100935.95
2018-09-17T14:19:09.553Z,100931.72
2018-09-17T14:24:13.410Z,100934.05
2018-09-17T14:29:16.988Z,100923.48
2018-09-17T14:34:20.589Z,100918.83
2018-09-17T14:39:24.300Z,100908.27
2018-09-17T14:44:27.930Z,100904.82
2018-09-17T14:49:39.185Z,100895.38
2018-09-17T14:54:42.891Z,100893.94
2018-09-17T14:59:46.426Z,100885.60
2018-09-17T15:04:50.088Z,100879.92
2018-09-17T15:09:53.766Z,100879.27
2018-09-17T15:14:57.413Z,100879.98
2018-09-17T15:20:00.989Z,100871.94
2018-09-17T15:25:04.918Z,100867.19
2018-09-17T15:30:13.367Z,100859.79
2018-09-17T15:35:17.155Z,100856.39
2018-09-17T15:40:20.973Z,100845.45
2018-09-17T15:45:24.922Z,100841.00
2018-09-17T15:50:28.534Z,100835.67
2018-09-17T15:55:32.149Z,100828.08
2018-09-17T16:00:35.792Z,100828.84
2018-09-17T16:05:39.373Z,100822.70
2018-09-17T16:10:43.000Z,100824.50
2018-09-17T16:15:48.021Z,100822.27
2018-09-17T16:20:51.659Z,100817.70
2018-09-17T16:25:55.244Z,100818.85
2018-09-17T16:30:58.781Z,100818.04
2018-09-17T16:36:02.362Z,100823.43
2018-09-17T16:41:06.301Z,100810.02
2018-09-17T16:46:09.883Z,100812.80
2018-09-17T16:51:13.557Z,100808.49
2018-09-17T16:56:17.106Z,100809.55
2018-09-17T17:01:20.766Z,100814.55
2018-09-17T17:06:24.623Z,100813.16
2018-09-17T17:11:28.236Z,100819.63
2018-09-17T17:16:31.785Z,100817.67
2018-09-17T17:21:36.273Z,100819.55
2018-09-17T17:26:39.831Z,100820.64
2018-09-17T17:31:43.454Z,100819.55
2018-09-17T17:36:47.793Z,100812.21
2018-09-17T17:41:52.406Z,100804.94
2018-09-17T17:46:56.905Z,100805.16
2018-09-17T17:52:01.616Z,100808.30
2018-09-17T17:57:06.327Z,100816.23
2018-09-17T18:02:10.037Z,100809.66
2018-09-17T18:07:13.823Z,100807.55
2018-09-17T18:12:17.394Z,100810.52
2018-09-17T18:17:21.365Z,100813.48
2018-09-17T18:22:26.216Z,100808.25
2018-09-17T18:27:31.013Z,100812.16
2018-09-17T18:32:35.883Z,100805.09
2018-09-17T18:37:41.463Z,100800.16
2018-09-17T18:42:46.146Z,100798.46
2018-09-17T18:47:50.007Z,100804.09
2018-09-17T18:52:54.027Z,100805.11
2018-09-17T18:57:58.552Z,100805.63
2018-09-17T19:03:02.243Z,100806.17
2018-09-17T19:08:05.944Z,100808.35
2018-09-17T19:13:09.734Z,100796.19
2018-09-17T19:18:19.328Z,100799.39
2018-09-17T19:23:29.189Z,100795.48
2018-09-17T19:28:38.164Z,100798.23
2018-09-17T19:33:41.815Z,100793.49
2018-09-17T19:38:50.767Z,100789.14
2018-09-17T19:43:54.458Z,100788.20
2018-09-17T19:48:58.056Z,100793.41
2018-09-17T19:54:01.762Z,100784.14
2018-09-17T19:59:10.747Z,100778.00
2018-09-17T20:04:20.451Z,100778.34
2018-09-17T20:09:24.742Z,100784.45
2018-09-17T20:14:29.428Z,100782.49
2018-09-17T20:19:33.270Z,100780.02
2018-09-17T20:24:37.666Z,100778.50
2018-09-17T20:29:42.268Z,100777.56
2018-09-17T20:34:47.073Z,100770.13
2018-09-17T20:39:51.715Z,100765.09
2018-09-17T20:44:56.258Z,100765.16
2018-09-17T20:49:59.965Z,100754.95
2018-09-17T20:55:03.588Z,100761.27
2018-09-17T21:00:09.356Z,100750.92
2018-09-17T21:05:13.655Z,100754.17
2018-09-17T21:10:17.846Z,100751.25
2018-09-17T21:15:21.608Z,100751.12
2018-09-17T21:20:26.749Z,100746.61
2018-09-17T21:25:30.473Z,100747.38
2018-09-17T21:30:34.137Z,100744.61
2018-09-17T21:35:37.739Z,100743.76
2018-09-17T21:40:41.628Z,100742.67
2018-09-17T21:45:45.292Z,100736.09
2018-09-17T21:50:59.330Z,100730.76
2018-09-17T21:56:02.985Z,100736.16
2018-09-17T22:01:07.074Z,100728.96
2018-09-17T22:06:15.004Z,100730.67
2018-09-17T22:11:18.955Z,100731.08
2018-09-17T22:16:22.716Z,100724.45
2018-09-17T22:21:26.299Z,100723.19
2018-09-17T22:26:29.920Z,100723.44
2018-09-17T22:31:33.515Z,100722.83
2018-09-17T22:36:37.092Z,100723.02
2018-09-17T22:41:41.127Z,100718.48
2018-09-17T22:46:44.653Z,100717.37
2018-09-17T22:51:48.274Z,100719.45
2018-09-17T22:56:51.794Z,100715.28
2018-09-17T23:01:55.398Z,100716.02
2018-09-17T23:06:58.918Z,100717.41
2018-09-17T23:12:02.795Z,100704.55
2018-09-17T23:17:06.431Z,100708.83
2018-09-17T23:22:10.002Z,100702.25
2018-09-17T23:27:14.004Z,100698.14
2018-09-17T23:32:17.887Z,100686.11
2018-09-17T23:37:21.661Z,100690.43
2018-09-17T23:42:25.204Z,100688.73
2018-09-17T23:47:30.237Z,100678.59
2018-09-17T23:52:33.935Z,100676.78
2018-09-17T23:57:37.508Z,100671.44
